Terminal Aerodrome Forecast
Issued by NWS Norman, OK

Home | Current Version | Previous Version | Text Only | Print | Product List | Glossary On
Versions: 1 2 3 4 5 6 7 8 9 10 11 12 13 14 15 16 17 18 19 20 21 22 23 24 25 26
000
FTUS44 KOUN 030520
TAFOKC
TAF
KOKC 030520Z 0306/0406 04006KT P6SM -RA FEW030 OVC040
     FM030800 05007KT P6SM VCSH OVC025
     FM031200 07007KT P6SM OVC030
     FM031600 07007KT 4SM -RA OVC009=

USA.gov is the U.S. government's official web portal to all federal, state and local government web resources and services.